createdAt,value
2023-05-09T00:00:11.861Z,995.36
2023-05-09T00:01:11.999Z,995.40
2023-05-09T00:02:11.903Z,995.38
2023-05-09T00:03:11.876Z,995.38
2023-05-09T00:04:11.865Z,995.40
2023-05-09T00:05:11.945Z,995.37
2023-05-09T00:06:11.828Z,995.35
2023-05-09T00:07:11.776Z,995.36
2023-05-09T00:08:12.061Z,995.32
2023-05-09T00:09:11.749Z,995.30
2023-05-09T00:10:11.748Z,995.34
2023-05-09T00:11:12.171Z,995.33
2023-05-09T00:12:12.222Z,995.32
2023-05-09T00:13:12.341Z,995.26
2023-05-09T00:14:11.689Z,995.26
2023-05-09T00:15:11.864Z,995.24
2023-05-09T00:16:11.722Z,995.26
2023-05-09T00:17:11.638Z,995.25
2023-05-09T00:18:11.641Z,995.31
2023-05-09T00:19:12.500Z,995.28
2023-05-09T00:20:11.636Z,995.24
2023-05-09T00:21:11.610Z,995.27
2023-05-09T00:22:11.589Z,995.23
2023-05-09T00:23:11.579Z,995.24
2023-05-09T00:24:11.557Z,995.24
2023-05-09T00:25:11.646Z,995.23
2023-05-09T00:26:12.280Z,995.20
2023-05-09T00:27:12.445Z,995.23
2023-05-09T00:28:11.501Z,995.20
2023-05-09T00:29:11.507Z,995.22
2023-05-09T00:30:11.513Z,995.18
2023-05-09T00:31:11.470Z,995.17
2023-05-09T00:32:11.496Z,995.16
2023-05-09T00:33:11.486Z,995.19
2023-05-09T00:34:11.483Z,995.17
2023-05-09T00:35:11.513Z,995.17
2023-05-09T00:36:11.414Z,995.14
2023-05-09T00:37:11.391Z,995.17
2023-05-09T00:38:11.389Z,995.17
2023-05-09T00:39:11.353Z,995.10
2023-05-09T00:40:11.386Z,995.15
2023-05-09T00:41:11.396Z,995.14
2023-05-09T00:42:12.270Z,995.07
2023-05-09T00:43:11.439Z,995.07
2023-05-09T00:44:11.347Z,995.06
2023-05-09T00:45:11.350Z,995.03
2023-05-09T00:46:11.711Z,995.01
2023-05-09T00:47:11.259Z,994.99
2023-05-09T00:48:11.274Z,995.00
2023-05-09T00:49:11.237Z,995.00
2023-05-09T00:50:11.242Z,995.01
2023-05-09T00:51:11.758Z,995.02
2023-05-09T00:52:11.794Z,995.04
2023-05-09T00:53:11.208Z,995.02
2023-05-09T00:54:11.169Z,995.02
2023-05-09T00:55:11.233Z,995.04
2023-05-09T00:56:11.968Z,995.00
2023-05-09T00:57:11.859Z,995.00
2023-05-09T00:58:12.043Z,994.98
2023-05-09T00:59:11.106Z,995.00
2023-05-09T01:00:11.095Z,994.97
2023-05-09T01:01:12.021Z,994.95
2023-05-09T01:02:11.121Z,994.88
2023-05-09T01:03:11.130Z,994.86
2023-05-09T01:04:11.049Z,994.83
2023-05-09T01:05:11.020Z,994.84
2023-05-09T01:06:11.024Z,994.81
2023-05-09T01:07:11.031Z,994.85
2023-05-09T01:08:11.841Z,994.82
2023-05-09T01:09:10.969Z,994.81
2023-05-09T01:10:10.968Z,994.81
2023-05-09T01:11:10.972Z,994.81
2023-05-09T01:12:11.711Z,994.76
2023-05-09T01:13:11.886Z,994.78
2023-05-09T01:14:10.938Z,994.78
2023-05-09T01:15:10.919Z,994.80
2023-05-09T01:16:10.976Z,994.76
2023-05-09T01:17:10.878Z,994.70
2023-05-09T01:18:10.897Z,994.72
2023-05-09T01:19:10.839Z,994.71
2023-05-09T01:20:10.829Z,994.69
2023-05-09T01:21:10.909Z,994.70
2023-05-09T01:22:10.804Z,994.67
2023-05-09T01:23:10.776Z,994.64
2023-05-09T01:24:10.788Z,994.64
2023-05-09T01:25:10.795Z,994.62
2023-05-09T01:26:10.787Z,994.59
2023-05-09T01:27:10.737Z,994.58
2023-05-09T01:28:10.761Z,994.63
2023-05-09T01:29:11.237Z,994.61
2023-05-09T01:30:11.274Z,994.60
2023-05-09T01:31:10.712Z,994.60
2023-05-09T01:32:10.685Z,994.56
2023-05-09T01:33:10.742Z,994.58
2023-05-09T01:34:10.656Z,994.56
2023-05-09T01:35:10.670Z,994.53
2023-05-09T01:36:10.637Z,994.49
2023-05-09T01:37:10.612Z,994.50
2023-05-09T01:38:10.589Z,994.46
2023-05-09T01:39:10.632Z,994.44
2023-05-09T01:40:10.600Z,994.46
2023-05-09T01:41:11.286Z,994.41
2023-05-09T01:42:10.541Z,994.40
2023-05-09T01:43:11.296Z,994.40
2023-05-09T01:44:11.503Z,994.37
2023-05-09T01:45:10.519Z,994.39
2023-05-09T01:46:11.275Z,994.41
2023-05-09T01:47:10.481Z,994.36
2023-05-09T01:48:10.540Z,994.37
2023-05-09T01:49:10.482Z,994.39
2023-05-09T01:50:10.442Z,994.36
2023-05-09T01:51:10.443Z,994.37
2023-05-09T01:52:11.193Z,994.35
2023-05-09T01:53:10.432Z,994.41
2023-05-09T01:54:10.416Z,994.34
2023-05-09T01:55:10.371Z,994.34
2023-05-09T01:56:10.364Z,994.32
2023-05-09T01:57:10.460Z,994.35
2023-05-09T01:58:10.360Z,994.32
2023-05-09T01:59:11.251Z,994.32
2023-05-09T02:00:10.435Z,994.26
2023-05-09T02:01:10.371Z,994.27
2023-05-09T02:02:10.523Z,994.24
2023-05-09T02:03:10.569Z,994.26
2023-05-09T02:04:10.256Z,994.26
2023-05-09T02:05:10.270Z,994.25
2023-05-09T02:06:10.216Z,994.27
2023-05-09T02:07:10.297Z,994.22
2023-05-09T02:08:10.747Z,994.24
2023-05-09T02:09:10.793Z,994.21
2023-05-09T02:10:10.183Z,994.23
2023-05-09T02:11:10.322Z,994.23
2023-05-09T02:12:10.226Z,994.19
2023-05-09T02:13:10.455Z,994.21
2023-05-09T02:14:10.141Z,994.21
2023-05-09T02:15:11.036Z,994.21
2023-05-09T02:16:10.539Z,994.19
2023-05-09T02:17:10.110Z,994.21
2023-05-09T02:18:10.094Z,994.18
2023-05-09T02:19:10.894Z,994.18
2023-05-09T02:20:10.812Z,994.22
2023-05-09T02:21:10.133Z,994.21
2023-05-09T02:22:10.055Z,994.20
2023-05-09T02:23:10.009Z,994.22
2023-05-09T02:24:09.988Z,994.19
2023-05-09T02:25:09.986Z,994.21
2023-05-09T02:26:10.008Z,994.15
2023-05-09T02:27:09.981Z,994.21
2023-05-09T02:28:09.950Z,994.17
2023-05-09T02:29:10.724Z,994.17
2023-05-09T02:30:10.874Z,994.19
2023-05-09T02:31:09.961Z,994.14
2023-05-09T02:32:10.053Z,994.17
2023-05-09T02:33:10.877Z,994.16
2023-05-09T02:34:10.740Z,994.16
2023-05-09T02:35:09.894Z,994.13
2023-05-09T02:36:09.891Z,994.15
2023-05-09T02:37:09.834Z,994.14
2023-05-09T02:38:09.811Z,994.17
2023-05-09T02:39:09.800Z,994.09
2023-05-09T02:40:09.818Z,994.06
2023-05-09T02:41:10.045Z,994.14
2023-05-09T02:42:09.756Z,994.10
2023-05-09T02:43:09.742Z,994.11
2023-05-09T02:44:09.772Z,994.15
2023-05-09T02:45:10.182Z,994.12
2023-05-09T02:46:10.272Z,994.07
2023-05-09T02:47:09.956Z,994.14
2023-05-09T02:48:09.740Z,994.14
2023-05-09T02:49:11.398Z,994.10
2023-05-09T02:50:10.740Z,994.12
2023-05-09T02:51:09.646Z,994.11
2023-05-09T02:52:10.471Z,994.10
2023-05-09T02:53:09.682Z,994.09
2023-05-09T02:54:09.637Z,994.10
2023-05-09T02:55:09.598Z,994.13
2023-05-09T02:56:09.609Z,994.11
2023-05-09T02:57:09.556Z,994.09
2023-05-09T02:58:14.241Z,994.06
2023-05-09T02:59:10.512Z,994.12
2023-05-09T03:00:10.325Z,994.10
2023-05-09T03:01:09.639Z,994.09
2023-05-09T03:02:09.514Z,994.07
2023-05-09T03:03:10.354Z,994.07
2023-05-09T03:04:09.457Z,994.05
2023-05-09T03:05:09.393Z,994.05
2023-05-09T03:06:09.395Z,994.05
2023-05-09T03:07:09.585Z,994.03
2023-05-09T03:08:09.469Z,994.05
2023-05-09T03:09:09.931Z,994.05
2023-05-09T03:10:09.347Z,994.04
2023-05-09T03:11:09.703Z,994.02
2023-05-09T03:12:10.167Z,994.05
2023-05-09T03:13:10.120Z,994.04
2023-05-09T03:14:09.340Z,994.02
2023-05-09T03:15:09.266Z,994.03
2023-05-09T03:16:09.337Z,994.00
2023-05-09T03:17:09.413Z,994.02
2023-05-09T03:18:09.531Z,994.01
2023-05-09T03:19:09.233Z,993.98
2023-05-09T03:20:10.136Z,994.00
2023-05-09T03:21:09.203Z,993.96
2023-05-09T03:22:09.225Z,993.91
2023-05-09T03:23:09.164Z,993.88
2023-05-09T03:24:09.160Z,993.87
2023-05-09T03:25:09.736Z,993.88
2023-05-09T03:26:09.138Z,993.84
2023-05-09T03:27:09.155Z,993.80
2023-05-09T03:28:09.104Z,993.80
2023-05-09T03:29:09.100Z,993.85
2023-05-09T03:30:09.133Z,993.81
2023-05-09T03:31:09.905Z,993.81
2023-05-09T03:32:09.781Z,993.79
2023-05-09T03:33:09.945Z,993.78
2023-05-09T03:34:09.844Z,993.82
2023-05-09T03:35:09.034Z,993.85
2023-05-09T03:36:09.932Z,993.84
2023-05-09T03:37:08.993Z,993.85
2023-05-09T03:38:08.978Z,993.83
2023-05-09T03:39:09.009Z,993.84
2023-05-09T03:40:08.951Z,993.82
2023-05-09T03:41:08.990Z,993.82
2023-05-09T03:42:09.856Z,993.84
2023-05-09T03:43:08.906Z,993.87
2023-05-09T03:44:08.905Z,993.87
2023-05-09T03:45:08.915Z,993.81
2023-05-09T03:46:09.839Z,993.83
2023-05-09T03:47:08.945Z,993.80
2023-05-09T03:48:08.953Z,993.76
2023-05-09T03:49:09.702Z,993.73
2023-05-09T03:50:08.874Z,993.76
2023-05-09T03:51:09.012Z,993.71
2023-05-09T03:52:08.808Z,993.70
2023-05-09T03:53:08.788Z,993.68
2023-05-09T03:54:08.769Z,993.68
2023-05-09T03:55:08.777Z,993.69
2023-05-09T03:56:08.746Z,993.72
2023-05-09T03:57:08.730Z,993.71
2023-05-09T03:58:08.733Z,993.67
2023-05-09T03:59:08.750Z,993.66
2023-05-09T04:00:08.740Z,993.65
2023-05-09T04:01:08.705Z,993.67
2023-05-09T04:02:09.187Z,993.64
2023-05-09T04:03:09.349Z,993.68
2023-05-09T04:04:09.309Z,993.62
2023-05-09T04:05:08.693Z,993.64
2023-05-09T04:06:08.616Z,993.61
2023-05-09T04:07:08.593Z,993.64
2023-05-09T04:08:08.604Z,993.60
2023-05-09T04:09:09.305Z,993.59
2023-05-09T04:10:08.587Z,993.62
2023-05-09T04:11:08.552Z,993.59
2023-05-09T04:12:08.541Z,993.57
2023-05-09T04:13:08.729Z,993.59
2023-05-09T04:14:08.552Z,993.61
2023-05-09T04:15:09.255Z,993.64
2023-05-09T04:16:08.509Z,993.62
2023-05-09T04:17:09.477Z,993.63
2023-05-09T04:18:08.538Z,993.65
2023-05-09T04:19:08.960Z,993.69
2023-05-09T04:20:09.284Z,993.68
2023-05-09T04:21:08.419Z,993.64
2023-05-09T04:22:08.405Z,993.63
2023-05-09T04:23:08.426Z,993.65
2023-05-09T04:24:08.408Z,993.67
2023-05-09T04:25:08.389Z,993.59
2023-05-09T04:26:09.035Z,993.54
2023-05-09T04:27:08.408Z,993.51
2023-05-09T04:28:08.373Z,993.55
2023-05-09T04:29:09.246Z,993.61
2023-05-09T04:30:08.348Z,993.59
2023-05-09T04:31:08.472Z,993.60
2023-05-09T04:32:08.377Z,993.55
2023-05-09T04:33:08.388Z,993.57
2023-05-09T04:34:09.172Z,993.57
2023-05-09T04:35:08.458Z,993.49
2023-05-09T04:36:08.271Z,993.52
2023-05-09T04:37:08.345Z,993.53
2023-05-09T04:38:08.217Z,993.54
2023-05-09T04:39:08.219Z,993.52
2023-05-09T04:40:08.188Z,993.50
2023-05-09T04:41:08.197Z,993.50
2023-05-09T04:42:08.212Z,993.51
2023-05-09T04:43:08.143Z,993.51
2023-05-09T04:44:08.131Z,993.54
2023-05-09T04:45:08.140Z,993.51
2023-05-09T04:46:08.178Z,993.54
2023-05-09T04:47:08.893Z,993.49
2023-05-09T04:48:08.396Z,993.51
2023-05-09T04:49:08.800Z,993.51
2023-05-09T04:50:08.061Z,993.47
2023-05-09T04:51:08.874Z,993.45
2023-05-09T04:52:08.036Z,993.42
2023-05-09T04:53:08.925Z,993.44
2023-05-09T04:54:08.829Z,993.44
2023-05-09T04:55:08.030Z,993.44
2023-05-09T04:56:08.012Z,993.47
2023-05-09T04:57:17.370Z,993.45
2023-05-09T04:58:08.955Z,993.53
2023-05-09T04:59:08.293Z,993.44
2023-05-09T05:00:07.980Z,993.43
2023-05-09T05:01:07.898Z,993.38
2023-05-09T05:02:07.945Z,993.38
2023-05-09T05:03:08.786Z,993.36
2023-05-09T05:04:07.940Z,993.34
2023-05-09T05:05:11.939Z,993.37
2023-05-09T05:06:08.696Z,993.36
2023-05-09T05:07:08.696Z,993.38
2023-05-09T05:08:08.729Z,993.34
2023-05-09T05:09:08.665Z,993.36
2023-05-09T05:10:07.835Z,993.33
2023-05-09T05:11:07.762Z,993.35
2023-05-09T05:12:09.547Z,993.31
2023-05-09T05:13:07.764Z,993.24
2023-05-09T05:14:07.770Z,993.28
2023-05-09T05:15:08.004Z,993.20
2023-05-09T05:16:07.767Z,993.19
2023-05-09T05:17:07.704Z,993.16
2023-05-09T05:18:07.718Z,993.15
2023-05-09T05:19:08.145Z,993.14
2023-05-09T05:20:07.669Z,993.11
2023-05-09T05:21:08.226Z,993.16
2023-05-09T05:22:07.645Z,993.13
2023-05-09T05:23:07.617Z,993.16
2023-05-09T05:24:08.338Z,993.14
2023-05-09T05:25:07.622Z,993.14
2023-05-09T05:26:08.315Z,993.15
2023-05-09T05:27:07.568Z,993.14
2023-05-09T05:28:07.582Z,993.14
2023-05-09T05:29:07.544Z,993.15
2023-05-09T05:30:07.697Z,993.16
2023-05-09T05:31:07.576Z,993.17
2023-05-09T05:32:07.506Z,993.14
2023-05-09T05:33:07.568Z,993.10
2023-05-09T05:34:07.493Z,993.16
2023-05-09T05:35:07.503Z,993.13
2023-05-09T05:36:07.454Z,993.14
2023-05-09T05:37:07.495Z,993.15
2023-05-09T05:38:07.450Z,993.19
2023-05-09T05:39:07.386Z,993.15
2023-05-09T05:40:07.397Z,993.09
2023-05-09T05:41:07.496Z,993.16
2023-05-09T05:42:07.495Z,993.10
2023-05-09T05:43:07.369Z,993.13
2023-05-09T05:44:07.330Z,993.14
2023-05-09T05:45:07.487Z,993.15
2023-05-09T05:46:07.536Z,993.15
2023-05-09T05:47:07.359Z,993.12
2023-05-09T05:48:07.318Z,993.15
2023-05-09T05:49:07.269Z,993.15
2023-05-09T05:50:07.370Z,993.16
2023-05-09T05:51:07.401Z,993.12
2023-05-09T05:52:07.254Z,993.15
2023-05-09T05:53:07.548Z,993.10
2023-05-09T05:54:07.211Z,993.10
2023-05-09T05:55:07.205Z,993.12
2023-05-09T05:56:07.209Z,993.10
2023-05-09T05:57:07.162Z,993.07
2023-05-09T05:58:07.403Z,993.12
2023-05-09T05:59:07.542Z,993.07
2023-05-09T06:00:07.122Z,993.00
2023-05-09T06:01:07.139Z,993.01
2023-05-09T06:02:07.155Z,993.03
2023-05-09T06:03:07.210Z,993.03
2023-05-09T06:04:07.523Z,993.05
2023-05-09T06:05:07.475Z,993.02
2023-05-09T06:06:07.096Z,992.99
2023-05-09T06:07:07.475Z,993.01
2023-05-09T06:08:07.484Z,992.93
2023-05-09T06:09:07.067Z,992.90
2023-05-09T06:10:07.493Z,992.87
2023-05-09T06:11:07.031Z,992.90
2023-05-09T06:12:07.074Z,992.89
2023-05-09T06:13:06.985Z,992.91
2023-05-09T06:14:07.023Z,992.85
2023-05-09T06:15:07.406Z,992.87
2023-05-09T06:16:18.020Z,992.84
2023-05-09T06:17:07.948Z,992.84
2023-05-09T06:18:06.980Z,992.81
2023-05-09T06:19:07.042Z,992.78
2023-05-09T06:20:07.551Z,992.72
2023-05-09T06:21:07.053Z,992.73
2023-05-09T06:22:06.996Z,992.66
2023-05-09T06:23:06.972Z,992.62
2023-05-09T06:24:14.204Z,992.66
2023-05-09T06:25:10.304Z,992.66
2023-05-09T06:26:06.784Z,992.65
2023-05-09T06:27:06.806Z,992.61
2023-05-09T06:28:06.757Z,992.64
2023-05-09T06:29:06.886Z,992.61
2023-05-09T06:30:23.941Z,992.57
2023-05-09T06:31:07.754Z,992.61
2023-05-09T06:32:07.036Z,992.57
2023-05-09T06:33:06.963Z,992.56
2023-05-09T06:34:06.711Z,992.55
2023-05-09T06:35:06.679Z,992.55
2023-05-09T06:36:07.059Z,992.47
2023-05-09T06:37:14.232Z,992.53
2023-05-09T06:38:06.858Z,992.42
2023-05-09T06:39:07.494Z,992.50
2023-05-09T06:40:06.666Z,992.51
2023-05-09T06:41:06.597Z,992.49
2023-05-09T06:42:06.808Z,992.48
2023-05-09T06:43:06.981Z,992.45
2023-05-09T06:44:06.539Z,992.43
2023-05-09T06:45:07.420Z,992.43
2023-05-09T06:46:06.546Z,992.39
2023-05-09T06:47:06.670Z,992.37
2023-05-09T06:48:07.452Z,992.36
2023-05-09T06:49:06.517Z,992.37
2023-05-09T06:50:06.458Z,992.27
2023-05-09T06:51:06.637Z,992.30
2023-05-09T06:52:07.233Z,992.31
2023-05-09T06:53:06.431Z,992.28
2023-05-09T06:54:07.052Z,992.30
2023-05-09T06:55:06.405Z,992.19
2023-05-09T06:56:07.352Z,992.23
2023-05-09T06:57:06.401Z,992.25
2023-05-09T06:58:06.362Z,992.16
2023-05-09T06:59:06.593Z,992.21
2023-05-09T07:00:06.493Z,992.18
2023-05-09T07:01:06.468Z,992.22
2023-05-09T07:02:06.500Z,992.20
2023-05-09T07:03:06.385Z,992.20
2023-05-09T07:04:07.191Z,992.21
2023-05-09T07:05:06.373Z,992.10
2023-05-09T07:06:06.604Z,992.10
2023-05-09T07:07:06.294Z,992.10
2023-05-09T07:08:06.257Z,992.08
2023-05-09T07:09:06.218Z,992.12
2023-05-09T07:10:11.338Z,992.09
2023-05-09T07:11:07.453Z,992.11
2023-05-09T07:12:06.263Z,992.12
2023-05-09T07:13:06.199Z,992.11
2023-05-09T07:14:06.995Z,992.07
2023-05-09T07:15:06.361Z,992.09
2023-05-09T07:16:06.391Z,992.07
2023-05-09T07:17:22.018Z,992.09
2023-05-09T07:18:07.125Z,992.09
2023-05-09T07:19:10.241Z,992.08
2023-05-09T07:20:06.290Z,992.07
2023-05-09T07:21:06.068Z,992.00
2023-05-09T07:22:06.286Z,992.05
2023-05-09T07:23:06.382Z,992.07
2023-05-09T07:24:06.037Z,991.95
2023-05-09T07:25:06.049Z,991.94
2023-05-09T07:26:06.030Z,991.93
2023-05-09T07:27:06.013Z,991.88
2023-05-09T07:28:05.981Z,991.90
2023-05-09T07:29:06.110Z,991.91
2023-05-09T07:30:05.949Z,991.87
2023-05-09T07:31:06.035Z,991.85
2023-05-09T07:32:06.166Z,991.83
2023-05-09T07:33:06.277Z,991.86
2023-05-09T07:34:05.969Z,991.77
2023-05-09T07:35:05.964Z,991.79
2023-05-09T07:36:05.873Z,991.71
2023-05-09T07:37:06.368Z,991.72
2023-05-09T07:38:05.903Z,991.65
2023-05-09T07:39:05.866Z,991.68
2023-05-09T07:40:05.833Z,991.65
2023-05-09T07:41:05.808Z,991.66
2023-05-09T07:42:06.316Z,991.53
2023-05-09T07:43:06.739Z,991.63
2023-05-09T07:44:05.867Z,991.55
2023-05-09T07:45:05.803Z,991.55
2023-05-09T07:46:05.915Z,991.54
2023-05-09T07:47:05.724Z,991.53
2023-05-09T07:48:05.874Z,991.52
2023-05-09T07:49:05.758Z,991.49
2023-05-09T07:50:05.697Z,991.53
2023-05-09T07:51:05.683Z,991.49
2023-05-09T07:52:05.661Z,991.53
2023-05-09T07:53:06.019Z,991.44
2023-05-09T07:54:06.026Z,991.45
2023-05-09T07:55:05.651Z,991.43
2023-05-09T07:56:05.718Z,991.43
2023-05-09T07:57:05.635Z,991.38
2023-05-09T07:58:06.326Z,991.39
2023-05-09T07:59:05.590Z,991.39
2023-05-09T08:00:05.569Z,991.40
2023-05-09T08:01:05.559Z,991.39
2023-05-09T08:02:05.663Z,991.40
2023-05-09T08:03:05.666Z,991.35
2023-05-09T08:04:05.603Z,991.33
2023-05-09T08:05:05.513Z,991.33
2023-05-09T08:06:05.481Z,991.33
2023-05-09T08:07:05.614Z,991.29
2023-05-09T08:08:06.245Z,991.23
2023-05-09T08:09:06.237Z,991.21
2023-05-09T08:10:05.432Z,991.18
2023-05-09T08:11:05.456Z,991.17
2023-05-09T08:12:05.461Z,991.15
2023-05-09T08:13:05.421Z,991.15
2023-05-09T08:14:05.387Z,991.15
2023-05-09T08:15:05.386Z,991.12
2023-05-09T08:16:05.427Z,991.15
2023-05-09T08:17:05.360Z,991.12
2023-05-09T08:18:05.387Z,991.06
2023-05-09T08:19:05.324Z,991.08
2023-05-09T08:20:05.302Z,991.07
2023-05-09T08:21:05.338Z,991.08
2023-05-09T08:22:06.226Z,991.10
2023-05-09T08:23:05.277Z,991.12
2023-05-09T08:24:06.075Z,991.11
2023-05-09T08:25:05.988Z,991.12
2023-05-09T08:26:05.253Z,991.11
2023-05-09T08:27:05.339Z,991.11
2023-05-09T08:28:05.546Z,991.12
2023-05-09T08:29:05.199Z,991.02
2023-05-09T08:30:05.284Z,991.04
2023-05-09T08:31:05.205Z,991.05
2023-05-09T08:32:05.164Z,991.01
2023-05-09T08:33:05.206Z,991.03
2023-05-09T08:34:05.127Z,991.00
2023-05-09T08:35:05.157Z,991.05
2023-05-09T08:36:05.097Z,991.03
2023-05-09T08:37:05.107Z,991.03
2023-05-09T08:38:05.089Z,990.98
2023-05-09T08:39:05.733Z,991.00
2023-05-09T08:40:05.817Z,991.01
2023-05-09T08:41:05.104Z,990.95
2023-05-09T08:42:05.845Z,990.96
2023-05-09T08:43:05.057Z,990.91
2023-05-09T08:44:05.028Z,990.93
2023-05-09T08:45:05.120Z,990.97
2023-05-09T08:46:04.987Z,990.92
2023-05-09T08:47:05.074Z,990.85
2023-05-09T08:48:04.973Z,990.82
2023-05-09T08:49:05.724Z,990.81
2023-05-09T08:50:04.924Z,990.84
2023-05-09T08:51:04.931Z,990.79
2023-05-09T08:52:04.914Z,990.76
2023-05-09T08:53:04.934Z,990.78
2023-05-09T08:54:05.805Z,990.76
2023-05-09T08:55:04.942Z,990.79
2023-05-09T08:56:04.852Z,990.79
2023-05-09T08:57:04.844Z,990.65
2023-05-09T08:58:04.860Z,990.68
2023-05-09T08:59:04.819Z,990.70
2023-05-09T09:00:05.697Z,990.68
2023-05-09T09:01:05.017Z,990.65
2023-05-09T09:02:04.836Z,990.64
2023-05-09T09:03:04.954Z,990.61
2023-05-09T09:04:04.743Z,990.61
2023-05-09T09:05:04.839Z,990.58
2023-05-09T09:06:04.723Z,990.59
2023-05-09T09:07:04.731Z,990.58
2023-05-09T09:08:04.739Z,990.54
2023-05-09T09:09:04.685Z,990.51
2023-05-09T09:10:04.718Z,990.51
2023-05-09T09:11:04.677Z,990.45
2023-05-09T09:12:04.689Z,990.47
2023-05-09T09:13:04.780Z,990.52
2023-05-09T09:14:04.613Z,990.46
2023-05-09T09:15:04.637Z,990.43
2023-05-09T09:16:04.632Z,990.42
2023-05-09T09:17:04.664Z,990.39
2023-05-09T09:18:06.152Z,990.41
2023-05-09T09:19:04.570Z,990.36
2023-05-09T09:20:05.479Z,990.38
2023-05-09T09:21:04.521Z,990.39
2023-05-09T09:22:05.487Z,990.39
2023-05-09T09:23:04.551Z,990.39
2023-05-09T09:24:04.706Z,990.39
2023-05-09T09:25:05.340Z,990.37
2023-05-09T09:26:05.261Z,990.40
2023-05-09T09:27:04.879Z,990.36
2023-05-09T09:28:04.444Z,990.31
2023-05-09T09:29:04.569Z,990.32
2023-05-09T09:30:04.421Z,990.29
2023-05-09T09:31:04.525Z,990.22
2023-05-09T09:32:04.532Z,990.26
2023-05-09T09:33:05.469Z,990.24
2023-05-09T09:34:04.442Z,990.26
2023-05-09T09:35:04.460Z,990.22
2023-05-09T09:36:04.355Z,990.27
2023-05-09T09:37:04.327Z,990.20
2023-05-09T09:38:04.411Z,990.17
2023-05-09T09:39:04.439Z,990.10
2023-05-09T09:40:04.487Z,990.11
2023-05-09T09:41:05.464Z,990.08
2023-05-09T09:42:05.241Z,990.09
2023-05-09T09:43:04.245Z,989.98
2023-05-09T09:44:04.315Z,989.95
2023-05-09T09:45:04.450Z,989.96
2023-05-09T09:46:04.447Z,989.95
2023-05-09T09:47:04.274Z,989.94
2023-05-09T09:48:04.339Z,989.92
2023-05-09T09:49:04.937Z,989.94
2023-05-09T09:50:04.327Z,989.92
2023-05-09T09:51:04.223Z,989.88
2023-05-09T09:52:04.169Z,989.94
2023-05-09T09:53:04.189Z,989.84
2023-05-09T09:54:04.131Z,989.81
2023-05-09T09:55:05.568Z,989.78
2023-05-09T09:56:04.092Z,989.83
2023-05-09T09:57:04.318Z,989.70
2023-05-09T09:58:04.093Z,989.73
2023-05-09T09:59:04.138Z,989.72
2023-05-09T10:00:04.061Z,989.69
2023-05-09T10:01:04.313Z,989.72
2023-05-09T10:02:07.091Z,989.64
2023-05-09T10:03:04.339Z,989.64
2023-05-09T10:04:04.026Z,989.62
2023-05-09T10:05:03.963Z,989.61
2023-05-09T10:06:03.943Z,989.62
2023-05-09T10:07:03.937Z,989.69
2023-05-09T10:08:03.950Z,989.63
2023-05-09T10:09:03.910Z,989.68
2023-05-09T10:10:03.883Z,989.68
2023-05-09T10:11:04.100Z,989.65
2023-05-09T10:12:04.112Z,989.62
2023-05-09T10:13:03.938Z,989.62
2023-05-09T10:14:03.834Z,989.54
2023-05-09T10:15:03.834Z,989.44
2023-05-09T10:16:03.881Z,989.49
2023-05-09T10:17:03.928Z,989.54
2023-05-09T10:18:03.913Z,989.47
2023-05-09T10:19:03.811Z,989.51
2023-05-09T10:20:04.454Z,989.38
2023-05-09T10:21:03.758Z,989.46
2023-05-09T10:22:04.117Z,989.50
2023-05-09T10:23:04.661Z,989.43
2023-05-09T10:24:03.702Z,989.41
2023-05-09T10:25:03.688Z,989.42
2023-05-09T10:26:03.760Z,989.42
2023-05-09T10:27:03.801Z,989.49
2023-05-09T10:28:03.663Z,989.37
2023-05-09T10:29:03.638Z,989.26
2023-05-09T10:30:03.623Z,989.34
2023-05-09T10:31:03.721Z,989.31
2023-05-09T10:32:03.663Z,989.29
2023-05-09T10:33:03.619Z,989.21
2023-05-09T10:34:03.585Z,989.26
2023-05-09T10:35:03.560Z,989.24
2023-05-09T10:36:03.578Z,989.26
2023-05-09T10:37:03.522Z,989.18
2023-05-09T10:38:03.504Z,989.22
2023-05-09T10:39:03.960Z,989.16
2023-05-09T10:40:03.533Z,989.11
2023-05-09T10:41:03.507Z,989.11
2023-05-09T10:42:04.093Z,989.04
2023-05-09T10:43:04.110Z,989.17
2023-05-09T10:44:03.454Z,989.04
2023-05-09T10:45:03.460Z,989.05
2023-05-09T10:46:03.455Z,989.08
2023-05-09T10:47:03.437Z,989.05
2023-05-09T10:48:03.383Z,989.02
2023-05-09T10:49:03.375Z,988.97
2023-05-09T10:50:03.407Z,988.97
2023-05-09T10:51:04.158Z,988.94
2023-05-09T10:52:03.328Z,988.93
2023-05-09T10:53:03.333Z,988.90
2023-05-09T10:54:03.301Z,988.86
2023-05-09T10:55:03.328Z,988.86
2023-05-09T10:56:03.291Z,988.92
2023-05-09T10:57:03.269Z,988.86
2023-05-09T10:58:04.082Z,988.93
2023-05-09T10:59:03.288Z,988.78
2023-05-09T11:00:03.257Z,988.87
2023-05-09T11:01:03.838Z,988.83
2023-05-09T11:02:03.274Z,988.85
2023-05-09T11:03:03.291Z,988.77
2023-05-09T11:04:03.230Z,988.74
2023-05-09T11:05:03.173Z,988.73
2023-05-09T11:06:03.915Z,988.75
2023-05-09T11:07:03.144Z,988.78
2023-05-09T11:08:03.152Z,988.77
2023-05-09T11:09:03.141Z,988.75
2023-05-09T11:10:03.112Z,988.70
2023-05-09T11:11:03.083Z,988.75
2023-05-09T11:12:03.084Z,988.76
2023-05-09T11:13:03.557Z,988.76
2023-05-09T11:14:03.087Z,988.71
2023-05-09T11:15:03.054Z,988.78
2023-05-09T11:16:04.026Z,988.71
2023-05-09T11:17:03.037Z,988.63
2023-05-09T11:18:03.071Z,988.68
2023-05-09T11:19:02.976Z,988.72
2023-05-09T11:20:03.777Z,988.68
2023-05-09T11:21:02.958Z,988.62
2023-05-09T11:22:02.982Z,988.64
2023-05-09T11:23:03.372Z,988.60
2023-05-09T11:24:02.922Z,988.57
2023-05-09T11:25:02.909Z,988.55
2023-05-09T11:26:02.899Z,988.56
2023-05-09T11:27:02.910Z,988.55
2023-05-09T11:28:03.589Z,988.57
2023-05-09T11:29:03.503Z,988.55
2023-05-09T11:30:02.863Z,988.54
2023-05-09T11:31:02.827Z,988.58
2023-05-09T11:32:02.876Z,988.54
2023-05-09T11:33:02.827Z,988.48
2023-05-09T11:34:02.824Z,988.55
2023-05-09T11:35:03.462Z,988.57
2023-05-09T11:36:03.480Z,988.52
2023-05-09T11:37:03.069Z,988.52
2023-05-09T11:38:02.752Z,988.47
2023-05-09T11:39:02.818Z,988.42
2023-05-09T11:40:02.834Z,988.43
2023-05-09T11:41:02.734Z,988.44
2023-05-09T11:42:02.695Z,988.46
2023-05-09T11:43:02.678Z,988.43
2023-05-09T11:44:02.922Z,988.40
2023-05-09T11:45:02.781Z,988.36
2023-05-09T11:46:02.687Z,988.35
2023-05-09T11:47:02.620Z,988.38
2023-05-09T11:48:02.633Z,988.34
2023-05-09T11:49:02.586Z,988.33
2023-05-09T11:50:03.512Z,988.40
2023-05-09T11:51:02.585Z,988.36
2023-05-09T11:52:02.557Z,988.27
2023-05-09T11:53:02.539Z,988.33
2023-05-09T11:54:02.525Z,988.30
2023-05-09T11:55:02.632Z,988.30
2023-05-09T11:56:02.611Z,988.29
2023-05-09T11:57:02.484Z,988.35
2023-05-09T11:58:02.506Z,988.29
2023-05-09T11:59:03.297Z,988.26
2023-05-09T12:00:02.485Z,988.18
2023-05-09T12:01:02.996Z,988.20
2023-05-09T12:02:02.472Z,988.19
2023-05-09T12:03:02.459Z,988.19
2023-05-09T12:04:02.522Z,988.14
2023-05-09T12:05:02.414Z,988.19
2023-05-09T12:06:02.421Z,988.13
2023-05-09T12:07:03.097Z,988.14
2023-05-09T12:08:03.294Z,988.18
2023-05-09T12:09:02.349Z,988.14
2023-05-09T12:10:02.376Z,988.10
2023-05-09T12:11:02.416Z,988.09
2023-05-09T12:12:02.350Z,988.06
2023-05-09T12:13:02.831Z,988.06
2023-05-09T12:14:02.300Z,988.06
2023-05-09T12:15:02.293Z,988.03
2023-05-09T12:16:02.318Z,988.01
2023-05-09T12:17:02.220Z,988.00
2023-05-09T12:18:02.338Z,988.03
2023-05-09T12:19:02.222Z,987.92
2023-05-09T12:20:03.132Z,987.97
2023-05-09T12:21:02.176Z,987.96
2023-05-09T12:22:02.237Z,987.91
2023-05-09T12:23:02.166Z,987.87
2023-05-09T12:24:02.207Z,987.87
2023-05-09T12:25:02.158Z,987.81
2023-05-09T12:26:02.124Z,987.84
2023-05-09T12:27:02.089Z,987.81
2023-05-09T12:28:02.135Z,987.76